Time;durP1;ratioP1;P1;durP2;ratioP2;P2;SDS_P1;SDS_P2;PMS_P1;PMS_P2;Temp;Humidity;BMP_temperature;BMP_pressure;BME280_temperature;BME280_humidity;BME280_pressure;Samples;Min_cycle;Max_cycle;Signal;HPM_P1;HPM_P2
2021/05/25 00:00:22;;;;;;;1.85;0.90;;;9.80;99.90;;;;;;5120202;28;20095;-68
2021/05/25 00:02:50;;;;;;;1.67;0.70;;;9.80;99.90;;;;;;5120482;28;20020;-68
2021/05/25 00:05:22;;;;;;;1.60;0.60;;;9.90;99.90;;;;;;5118867;28;20095;-68
2021/05/25 00:07:50;;;;;;;1.60;1.00;;;9.90;99.90;;;;;;5101169;28;20031;-68
2021/05/25 00:10:18;;;;;;;1.40;0.60;;;10.00;99.90;;;;;;5119097;28;20446;-68
2021/05/25 00:12:46;;;;;;;1.65;0.60;;;10.00;99.90;;;;;;5119262;28;20091;-68
2021/05/25 00:15:18;;;;;;;3.08;0.70;;;10.10;99.90;;;;;;5119657;28;20061;-68
2021/05/25 00:17:47;;;;;;;4.63;0.80;;;10.10;99.90;;;;;;5119066;28;20031;-68
2021/05/25 00:20:16;;;;;;;2.20;0.80;;;10.10;99.90;;;;;;5118811;28;20020;-68
2021/05/25 00:22:43;;;;;;;0.45;0.30;;;10.10;99.90;;;;;;5119731;28;20020;-68
2021/05/25 00:25:13;;;;;;;0.93;0.70;;;10.10;99.90;;;;;;5118848;28;20102;-68
2021/05/25 00:27:42;;;;;;;0.77;0.40;;;10.10;99.90;;;;;;5119533;28;20019;-68
2021/05/25 00:30:14;;;;;;;1.10;0.43;;;10.10;99.90;;;;;;5119639;28;20025;-68
2021/05/25 00:32:43;;;;;;;1.40;0.40;;;10.10;99.90;;;;;;5120157;28;20163;-67
2021/05/25 00:35:11;;;;;;;3.10;0.70;;;10.10;99.90;;;;;;5119481;28;20415;-67
2021/05/25 00:37:39;;;;;;;0.65;0.40;;;10.10;99.90;;;;;;5120076;28;20038;-68
2021/05/25 00:40:08;;;;;;;4.25;0.63;;;10.00;99.90;;;;;;5101275;28;20046;-68
2021/05/25 00:42:37;;;;;;;0.70;0.40;;;10.00;99.90;;;;;;5119540;28;20028;-68
2021/05/25 00:45:07;;;;;;;1.40;0.70;;;10.00;99.90;;;;;;5120012;28;20399;-67
2021/05/25 00:47:36;;;;;;;1.20;0.50;;;9.90;99.90;;;;;;5119118;28;20028;-67
2021/05/25 00:50:14;;;;;;;1.58;0.55;;;9.90;99.90;;;;;;5118345;28;20023;-68
2021/05/25 00:52:47;;;;;;;3.05;0.50;;;9.80;99.90;;;;;;5118395;28;20053;-67
2021/05/25 00:55:19;;;;;;;2.65;0.40;;;9.80;99.90;;;;;;5118269;28;20089;-68
2021/05/25 00:57:49;;;;;;;0.68;0.35;;;9.80;99.90;;;;;;5119210;28;20288;-67
2021/05/25 01:00:20;;;;;;;1.70;0.50;;;9.80;99.90;;;;;;5100723;28;20472;-67
2021/05/25 01:02:48;;;;;;;1.70;0.50;;;9.70;99.90;;;;;;5100080;28;20034;-68
2021/05/25 01:05:16;;;;;;;0.63;0.35;;;9.70;99.90;;;;;;5118000;28;20482;-67
2021/05/25 01:07:44;;;;;;;0.80;0.40;;;9.60;99.90;;;;;;5118314;28;20034;-68
2021/05/25 01:10:15;;;;;;;0.90;0.50;;;9.60;99.90;;;;;;5118843;28;20023;-67
2021/05/25 01:12:53;;;;;;;1.83;0.57;;;9.60;99.90;;;;;;5118749;28;20031;-68
2021/05/25 01:15:22;;;;;;;0.90;0.40;;;9.60;99.90;;;;;;5119034;28;20315;-68
2021/05/25 01:17:55;;;;;;;0.88;0.40;;;9.50;99.90;;;;;;5100937;28;20024;-68
2021/05/25 01:20:24;;;;;;;3.97;0.40;;;9.50;99.90;;;;;;5118563;28;20019;-68
2021/05/25 01:22:53;;;;;;;2.60;1.02;;;9.50;99.90;;;;;;5118941;28;20028;-68
2021/05/25 01:25:21;;;;;;;1.33;0.55;;;9.50;99.90;;;;;;5118914;28;20293;-67
2021/05/25 01:27:55;;;;;;;3.40;0.55;;;9.50;99.90;;;;;;5118204;28;20020;-67
2021/05/25 01:30:32;;;;;;;0.70;0.40;;;9.40;99.90;;;;;;5117480;28;20036;-68
2021/05/25 01:33:02;;;;;;;0.52;0.22;;;9.50;99.90;;;;;;5117667;28;20026;-67
2021/05/25 01:35:30;;;;;;;0.65;0.30;;;9.50;99.90;;;;;;5117717;27;20020;-68
2021/05/25 01:38:00;;;;;;;1.48;0.70;;;9.50;99.90;;;;;;5117601;28;20110;-67
2021/05/25 01:40:28;;;;;;;2.15;0.68;;;9.50;99.90;;;;;;5099374;28;20020;-68
2021/05/25 01:42:56;;;;;;;2.92;1.15;;;9.50;99.90;;;;;;5117490;28;20022;-67
2021/05/25 01:45:27;;;;;;;4.53;0.47;;;9.50;99.90;;;;;;5099320;28;20023;-68
2021/05/25 01:47:56;;;;;;;1.77;0.55;;;9.50;99.90;;;;;;5118054;28;20031;-67
2021/05/25 01:50:25;;;;;;;1.85;0.45;;;9.40;99.90;;;;;;5117942;28;20032;-67
2021/05/25 01:52:57;;;;;;;3.95;0.30;;;9.40;99.90;;;;;;5118177;28;20365;-67
2021/05/25 01:55:37;;;;;;;1.63;0.32;;;9.30;99.90;;;;;;5117697;28;20346;-68
2021/05/25 01:58:21;;;;;;;1.13;0.70;;;9.20;99.90;;;;;;5118753;28;20020;-67
2021/05/25 02:00:54;;;;;;;0.98;0.50;;;9.20;99.90;;;;;;5118631;28;20334;-67
2021/05/25 02:03:22;;;;;;;1.67;0.50;;;9.10;99.90;;;;;;5118061;28;20026;-68
2021/05/25 02:05:49;;;;;;;0.98;0.50;;;9.00;99.90;;;;;;5118363;28;20023;-67
2021/05/25 02:08:19;;;;;;;0.73;0.60;;;8.90;99.90;;;;;;5099500;28;20327;-68
2021/05/25 02:10:48;;;;;;;3.90;1.13;;;8.80;99.90;;;;;;5117571;28;20027;-67
2021/05/25 02:13:18;;;;;;;2.20;0.60;;;8.80;99.90;;;;;;5117002;28;20024;-68
2021/05/25 02:15:48;;;;;;;1.75;0.52;;;8.80;99.90;;;;;;5117014;28;20023;-68
2021/05/25 02:18:23;;;;;;;1.02;0.40;;;8.80;99.90;;;;;;5116894;28;20407;-67
2021/05/25 02:20:54;;;;;;;1.30;0.50;;;8.80;99.90;;;;;;5117248;28;20023;-67
2021/05/25 02:23:22;;;;;;;10.10;1.35;;;8.90;99.90;;;;;;5117067;28;20015;-67
2021/05/25 02:25:50;;;;;;;2.63;0.63;;;8.90;99.90;;;;;;5116904;28;20023;-67
2021/05/25 02:28:19;;;;;;;9.32;0.68;;;9.00;99.90;;;;;;5119000;28;20028;-67
2021/05/25 02:30:47;;;;;;;5.03;0.43;;;9.00;99.90;;;;;;5121835;28;20098;-68
2021/05/25 02:33:18;;;;;;;1.17;0.63;;;9.00;99.90;;;;;;5104147;28;20453;-68
2021/05/25 02:35:48;;;;;;;1.02;0.50;;;9.00;99.90;;;;;;5103849;28;20488;-67
2021/05/25 02:38:16;;;;;;;1.63;0.38;;;9.10;99.90;;;;;;5121908;28;20028;-67
2021/05/25 02:40:46;;;;;;;1.75;0.45;;;9.20;99.90;;;;;;5103783;28;20483;-67
2021/05/25 02:43:16;;;;;;;0.75;0.47;;;9.20;99.90;;;;;;5122004;28;20107;-67
2021/05/25 02:45:44;;;;;;;0.93;0.50;;;9.20;99.90;;;;;;5122099;28;20016;-67
2021/05/25 02:48:12;;;;;;;4.05;0.57;;;9.20;99.90;;;;;;5121746;28;20028;-67
2021/05/25 02:50:40;;;;;;;2.15;0.65;;;9.20;99.90;;;;;;5120802;28;20422;-67
2021/05/25 02:53:08;;;;;;;1.55;0.60;;;9.30;99.90;;;;;;5120849;28;20059;-67
2021/05/25 02:55:40;;;;;;;1.48;0.60;;;9.20;99.90;;;;;;5120553;28;20055;-67
2021/05/25 02:58:09;;;;;;;0.88;0.50;;;9.20;99.90;;;;;;5120428;28;20036;-67
2021/05/25 03:00:42;;;;;;;2.08;0.95;;;9.20;99.90;;;;;;5121300;28;20054;-67
2021/05/25 03:03:11;;;;;;;0.98;0.50;;;9.30;99.90;;;;;;5120954;28;20027;-67
2021/05/25 03:05:39;;;;;;;1.95;0.52;;;9.20;99.90;;;;;;5120422;28;20019;-68
2021/05/25 03:08:08;;;;;;;1.00;0.40;;;9.20;99.90;;;;;;5120445;28;20031;-68
2021/05/25 03:10:38;;;;;;;0.60;0.30;;;9.20;99.90;;;;;;5120361;28;20387;-67
2021/05/25 03:13:06;;;;;;;1.42;0.63;;;9.10;99.90;;;;;;5121557;28;20031;-67
2021/05/25 03:15:37;;;;;;;2.25;0.68;;;9.10;99.90;;;;;;5121718;28;20434;-67
2021/05/25 03:18:05;;;;;;;2.05;0.68;;;9.10;99.90;;;;;;5103199;28;20028;-67
2021/05/25 03:20:34;;;;;;;1.77;0.40;;;9.10;99.90;;;;;;5120981;28;20072;-67
2021/05/25 03:23:02;;;;;;;3.92;0.60;;;9.00;99.90;;;;;;5121282;28;20415;-67
2021/05/25 03:25:30;;;;;;;2.08;0.88;;;9.00;99.90;;;;;;5120931;28;20023;-67
2021/05/25 03:27:58;;;;;;;3.58;0.80;;;9.00;99.90;;;;;;5120999;28;20423;-67
2021/05/25 03:30:28;;;;;;;1.75;0.50;;;8.90;99.90;;;;;;5120866;28;20169;-67
2021/05/25 03:32:57;;;;;;;2.63;0.85;;;8.90;99.90;;;;;;5120614;28;20031;-68
2021/05/25 03:35:26;;;;;;;4.70;0.88;;;8.90;99.90;;;;;;5119714;28;20039;-67
2021/05/25 03:37:55;;;;;;;2.55;0.70;;;8.90;99.90;;;;;;5119941;28;20024;-67
2021/05/25 03:40:22;;;;;;;2.92;0.70;;;8.90;99.90;;;;;;5118975;28;20306;-67
2021/05/25 03:42:51;;;;;;;1.42;0.70;;;8.90;99.90;;;;;;5119768;28;20020;-67
2021/05/25 03:45:21;;;;;;;2.50;0.55;;;8.90;99.90;;;;;;5120226;28;20056;-68
2021/05/25 03:47:49;;;;;;;1.48;0.40;;;8.90;99.90;;;;;;5120088;28;20031;-68
2021/05/25 03:50:18;;;;;;;1.88;0.50;;;9.00;99.90;;;;;;5119484;28;20077;-67
2021/05/25 03:52:48;;;;;;;4.22;0.80;;;9.00;99.90;;;;;;5120293;28;20096;-68
2021/05/25 04:00:42;;;;;;;3.30;0.40;;;9.10;99.90;;;;;;5120711;28;20433;-67
2021/05/25 04:03:10;;;;;;;1.77;0.63;;;9.10;99.90;;;;;;5120174;28;20629;-67
2021/05/25 04:05:38;;;;;;;1.17;0.45;;;9.20;99.90;;;;;;5120078;28;20024;-68
2021/05/25 04:08:08;;;;;;;3.80;0.70;;;9.20;99.90;;;;;;5102247;28;20125;-67
2021/05/25 04:10:37;;;;;;;1.13;0.77;;;9.20;99.90;;;;;;5119807;28;20028;-67
2021/05/25 04:13:06;;;;;;;2.55;0.90;;;9.20;99.90;;;;;;5101085;28;20118;-67
2021/05/25 04:15:34;;;;;;;2.28;0.70;;;9.30;99.90;;;;;;5119079;28;20060;-67
2021/05/25 04:18:02;;;;;;;0.68;0.50;;;9.30;99.90;;;;;;5119066;28;20031;-68
2021/05/25 04:20:30;;;;;;;1.75;0.60;;;9.30;99.90;;;;;;5118981;28;20403;-67
2021/05/25 04:22:59;;;;;;;1.10;0.60;;;9.40;99.90;;;;;;5119214;28;20097;-67
2021/05/25 04:25:26;;;;;;;4.75;1.02;;;9.40;99.90;;;;;;5118959;28;20020;-67
2021/05/25 04:27:54;;;;;;;1.48;0.60;;;9.40;99.90;;;;;;5119099;28;20024;-68
2021/05/25 04:30:23;;;;;;;1.20;0.55;;;9.50;99.90;;;;;;5118822;28;20050;-67
2021/05/25 04:32:51;;;;;;;2.20;0.60;;;9.50;99.90;;;;;;5119026;28;20027;-68
2021/05/25 04:35:19;;;;;;;2.53;0.52;;;9.50;99.90;;;;;;5119988;28;20020;-67
2021/05/25 04:37:47;;;;;;;1.75;0.65;;;9.50;99.90;;;;;;5101427;28;20031;-68
2021/05/25 04:40:14;;;;;;;1.25;0.70;;;9.60;99.90;;;;;;5101462;28;20073;-68
2021/05/25 04:42:42;;;;;;;1.88;0.82;;;9.60;99.90;;;;;;5119574;28;20015;-67
2021/05/25 04:45:11;;;;;;;3.15;0.52;;;9.60;99.90;;;;;;5119366;28;20016;-67
2021/05/25 04:47:38;;;;;;;3.72;1.27;;;9.60;99.90;;;;;;5119448;28;20035;-67
2021/05/25 04:50:09;;;;;;;1.20;0.50;;;9.60;99.90;;;;;;5084293;28;20043;-67
2021/05/25 04:52:37;;;;;;;2.22;0.80;;;9.50;99.90;;;;;;5118743;28;20020;-68
2021/05/25 04:55:07;;;;;;;1.58;0.80;;;9.50;99.90;;;;;;5096673;28;20051;-68
2021/05/25 04:57:35;;;;;;;1.42;0.50;;;9.50;99.90;;;;;;5098095;28;20030;-68
2021/05/25 05:00:06;;;;;;;0.85;0.50;;;9.50;99.90;;;;;;5097821;28;20020;-68
2021/05/25 05:02:33;;;;;;;4.30;0.88;;;9.60;99.90;;;;;;5098306;28;20016;-67
2021/05/25 05:05:01;;;;;;;1.85;0.55;;;9.60;99.90;;;;;;5097609;28;20020;-67
2021/05/25 05:07:30;;;;;;;1.67;0.50;;;9.70;99.90;;;;;;5097748;28;20369;-67
2021/05/25 05:09:58;;;;;;;0.82;0.38;;;9.80;99.90;;;;;;5097586;28;20020;-68
2021/05/25 05:12:26;;;;;;;2.60;0.68;;;9.80;99.90;;;;;;5097729;28;20034;-68
2021/05/25 05:14:55;;;;;;;1.23;0.50;;;9.90;99.90;;;;;;5099006;28;20024;-68
2021/05/25 05:17:24;;;;;;;4.25;0.73;;;10.00;99.90;;;;;;5098376;28;20028;-68
2021/05/25 05:19:52;;;;;;;2.72;0.65;;;10.00;99.90;;;;;;5098357;28;20027;-68
2021/05/25 05:22:20;;;;;;;1.20;0.50;;;10.00;99.90;;;;;;5098428;28;20059;-68
2021/05/25 05:24:49;;;;;;;1.75;0.45;;;10.10;99.90;;;;;;5097162;28;20016;-68
2021/05/25 05:27:17;;;;;;;1.42;0.65;;;10.20;99.90;;;;;;5098744;28;20024;-70
2021/05/25 05:29:44;;;;;;;1.27;0.60;;;10.30;99.90;;;;;;5098741;28;20031;-72
2021/05/25 05:32:12;;;;;;;2.10;0.40;;;10.40;99.90;;;;;;5098222;28;20026;-70
2021/05/25 05:34:40;;;;;;;1.40;0.45;;;10.40;99.90;;;;;;5096085;28;20381;-70
2021/05/25 05:37:08;;;;;;;2.95;0.68;;;10.40;99.90;;;;;;5096983;28;20020;-70
2021/05/25 05:39:36;;;;;;;1.50;0.57;;;10.30;99.90;;;;;;5097450;28;20261;-71
2021/05/25 05:42:03;;;;;;;2.05;0.60;;;10.20;99.90;;;;;;5097523;28;20043;-71
2021/05/25 05:44:31;;;;;;;1.00;0.40;;;10.20;99.90;;;;;;5079084;28;20044;-71
2021/05/25 05:47:00;;;;;;;1.23;0.40;;;10.10;99.90;;;;;;5097320;28;20315;-70
2021/05/25 05:49:27;;;;;;;3.05;0.60;;;10.00;99.90;;;;;;5096890;28;20020;-71
2021/05/25 05:51:55;;;;;;;1.02;0.30;;;10.00;99.90;;;;;;5096821;28;20066;-70
2021/05/25 05:54:22;;;;;;;2.90;0.40;;;9.90;99.90;;;;;;5101510;28;20096;-70
2021/05/25 05:56:49;;;;;;;0.88;0.50;;;10.00;99.90;;;;;;5100380;28;20106;-70
2021/05/25 05:59:17;;;;;;;1.45;0.50;;;9.90;99.90;;;;;;5100686;28;20024;-70
2021/05/25 06:01:46;;;;;;;1.20;0.40;;;9.90;99.90;;;;;;5117737;28;20327;-70
2021/05/25 06:04:13;;;;;;;3.55;0.50;;;10.00;99.90;;;;;;5118477;28;20011;-70
2021/05/25 06:06:42;;;;;;;1.90;0.55;;;10.00;99.90;;;;;;5118178;28;20058;-70
2021/05/25 06:09:10;;;;;;;1.40;0.30;;;10.10;99.90;;;;;;5118234;28;20126;-69
2021/05/25 06:11:38;;;;;;;0.95;0.60;;;10.20;99.90;;;;;;5118106;28;20023;-71
2021/05/25 06:14:06;;;;;;;2.45;0.38;;;10.20;99.90;;;;;;5117388;28;20072;-72
2021/05/25 06:16:34;;;;;;;0.77;0.30;;;10.20;99.90;;;;;;5117037;28;20035;-72
2021/05/25 06:19:03;;;;;;;1.95;0.43;;;10.20;99.90;;;;;;5117632;28;20072;-71
2021/05/25 06:21:31;;;;;;;4.00;1.15;;;10.20;99.90;;;;;;5098820;28;20016;-71
2021/05/25 06:24:00;;;;;;;4.70;0.52;;;10.20;99.90;;;;;;5116952;28;20024;-72
2021/05/25 06:26:28;;;;;;;1.50;0.40;;;10.20;99.90;;;;;;5116915;28;20031;-72
2021/05/25 06:28:56;;;;;;;1.65;0.88;;;10.30;99.90;;;;;;5098982;28;20449;-72
2021/05/25 06:31:23;;;;;;;1.85;0.25;;;10.50;99.90;;;;;;5116847;28;20024;-72
2021/05/25 06:33:51;;;;;;;0.40;0.15;;;10.50;99.90;;;;;;5116890;28;20327;-72
2021/05/25 06:36:20;;;;;;;0.75;0.20;;;10.60;99.90;;;;;;5099269;28;20024;-71
2021/05/25 06:38:47;;;;;;;0.95;0.20;;;10.60;99.90;;;;;;5117662;28;20069;-72
2021/05/25 06:41:15;;;;;;;2.85;0.40;;;10.70;99.90;;;;;;5100263;28;20076;-71
2021/05/25 06:43:43;;;;;;;2.30;0.13;;;10.80;99.90;;;;;;5118150;28;20023;-72
2021/05/25 06:46:11;;;;;;;2.47;0.30;;;10.80;99.90;;;;;;5099695;28;20383;-72
2021/05/25 06:48:38;;;;;;;0.60;0.25;;;10.90;99.90;;;;;;5117652;28;20308;-75
2021/05/25 06:51:09;;;;;;;1.50;0.30;;;11.00;99.90;;;;;;5117605;28;20038;-71
2021/05/25 06:53:37;;;;;;;1.33;0.20;;;11.10;99.90;;;;;;5099608;28;20418;-72
2021/05/25 06:56:05;;;;;;;1.77;0.28;;;11.30;99.90;;;;;;5095186;28;20409;-73
2021/05/25 06:58:33;;;;;;;1.00;0.20;;;11.50;99.90;;;;;;5096311;28;20097;-75
2021/05/25 07:01:01;;;;;;;0.65;0.20;;;11.60;99.90;;;;;;5096208;28;20024;-72
2021/05/25 07:03:30;;;;;;;2.13;0.30;;;11.70;99.90;;;;;;5096302;28;20024;-72
2021/05/25 07:05:58;;;;;;;2.38;0.50;;;11.70;99.90;;;;;;5096117;28;20028;-72
2021/05/25 07:08:25;;;;;;;4.68;0.25;;;11.70;99.90;;;;;;5096889;28;20047;-73
2021/05/25 07:10:53;;;;;;;0.77;0.30;;;11.60;99.90;;;;;;5096728;28;20027;-72
2021/05/25 07:13:21;;;;;;;1.58;0.25;;;11.50;99.90;;;;;;5096645;28;20484;-73
2021/05/25 07:15:48;;;;;;;1.83;0.30;;;11.60;99.90;;;;;;5099950;28;20059;-73
2021/05/25 07:18:18;;;;;;;0.57;0.52;;;11.70;99.90;;;;;;5101312;28;20311;-72
2021/05/25 07:20:48;;;;;;;4.82;1.33;;;11.70;99.90;;;;;;5100668;28;20020;-72
2021/05/25 07:23:16;;;;;;;1.48;0.40;;;11.50;99.90;;;;;;5099600;28;20431;-73
2021/05/25 07:25:44;;;;;;;1.17;0.30;;;11.50;99.90;;;;;;5116463;28;20024;-72
2021/05/25 07:28:13;;;;;;;1.77;0.20;;;11.30;99.90;;;;;;5100937;28;20039;-72
2021/05/25 07:30:42;;;;;;;0.93;0.15;;;11.30;99.90;;;;;;5099356;28;20024;-72
2021/05/25 07:33:09;;;;;;;0.15;0.15;;;11.10;99.90;;;;;;5100482;28;20051;-72
2021/05/25 07:35:38;;;;;;;1.95;0.20;;;11.00;99.90;;;;;;5100509;28;20024;-73
2021/05/25 07:38:06;;;;;;;0.40;0.20;;;10.90;99.90;;;;;;5100285;28;20102;-74
2021/05/25 07:40:35;;;;;;;1.95;0.30;;;10.90;99.90;;;;;;5098403;28;20016;-74
2021/05/25 07:43:02;;;;;;;0.20;0.20;;;10.90;99.90;;;;;;5099667;28;20435;-72
2021/05/25 07:45:30;;;;;;;1.00;0.80;;;11.00;99.90;;;;;;5099446;28;20415;-72
2021/05/25 07:47:58;;;;;;;0.35;0.20;;;11.10;99.90;;;;;;5100024;28;20073;-73
2021/05/25 07:50:27;;;;;;;0.15;0.10;;;11.20;99.90;;;;;;5099255;28;20020;-72
2021/05/25 07:52:57;;;;;;;2.25;0.13;;;11.30;99.90;;;;;;5098453;28;20119;-73
2021/05/25 07:55:27;;;;;;;0.47;0.20;;;11.50;99.90;;;;;;5097921;28;20052;-72
2021/05/25 07:58:01;;;;;;;0.47;0.15;;;11.60;99.90;;;;;;5100318;28;20027;-72
2021/05/25 08:00:30;;;;;;;0.20;0.10;;;11.70;99.90;;;;;;5100211;28;20020;-72
2021/05/25 08:02:57;;;;;;;2.30;0.17;;;11.70;99.90;;;;;;5100314;28;20161;-72
2021/05/25 08:05:28;;;;;;;0.28;0.10;;;11.70;99.90;;;;;;5099825;28;20392;-74
2021/05/25 08:07:57;;;;;;;0.38;0.10;;;11.70;99.90;;;;;;5099941;28;20121;-72
2021/05/25 08:10:25;;;;;;;0.28;0.10;;;11.70;99.90;;;;;;5098771;28;20028;-73
2021/05/25 08:12:53;;;;;;;1.50;0.20;;;11.60;99.90;;;;;;5100385;28;20069;-73
2021/05/25 08:15:28;;;;;;;1.85;0.10;;;11.50;99.90;;;;;;5099669;28;20020;-72
2021/05/25 08:20:28;;;;;;;0.28;0.10;;;11.00;99.90;;;;;;5098624;28;20085;-72
2021/05/25 08:23:00;;;;;;;0.10;0.10;;;10.90;99.90;;;;;;5114503;28;20020;-72
2021/05/25 08:25:31;;;;;;;0.40;0.10;;;10.90;99.90;;;;;;5097048;28;20042;-72
2021/05/25 08:28:01;;;;;;;0.28;0.10;;;11.00;99.90;;;;;;5098963;28;20028;-72
2021/05/25 08:30:31;;;;;;;0.20;0.10;;;11.20;99.90;;;;;;5098803;28;20319;-72
2021/05/25 08:32:59;;;;;;;0.22;0.10;;;11.50;99.90;;;;;;5098901;28;20407;-72
2021/05/25 08:35:35;;;;;;;0.15;0.15;;;11.70;99.90;;;;;;5098229;28;20028;-72
2021/05/25 08:38:07;;;;;;;0.68;0.20;;;11.60;99.90;;;;;;5099685;28;20047;-72
2021/05/25 08:40:36;;;;;;;1.45;0.30;;;11.60;99.90;;;;;;5099137;28;20031;-71
2021/05/25 08:43:05;;;;;;;0.60;0.30;;;11.60;99.90;;;;;;5099405;28;20024;-73
2021/05/25 08:45:33;;;;;;;0.32;0.17;;;11.70;99.90;;;;;;5099345;28;20028;-73
2021/05/25 08:48:01;;;;;;;0.30;0.20;;;11.70;99.90;;;;;;5099198;28;20024;-73
2021/05/25 08:50:30;;;;;;;0.55;0.17;;;11.80;99.90;;;;;;5098949;28;20031;-73
2021/05/25 08:53:04;;;;;;;1.92;0.30;;;11.80;99.90;;;;;;5097854;28;20028;-73
2021/05/25 08:55:37;;;;;;;0.52;0.25;;;11.90;99.90;;;;;;5111943;28;20039;-73
2021/05/25 08:58:06;;;;;;;1.13;0.30;;;12.00;99.90;;;;;;5119030;28;20027;-72
2021/05/25 09:00:37;;;;;;;0.10;0.10;;;12.20;99.90;;;;;;5118274;28;20020;-72
2021/05/25 09:03:05;;;;;;;2.55;0.32;;;12.50;99.90;;;;;;5118277;28;20027;-72
2021/05/25 09:05:34;;;;;;;0.30;0.20;;;12.80;99.90;;;;;;5118090;28;20015;-72
2021/05/25 09:08:02;;;;;;;0.68;0.20;;;13.10;99.90;;;;;;5118155;28;20034;-72
2021/05/25 09:10:37;;;;;;;1.15;0.35;;;13.40;99.70;;;;;;5117978;28;20424;-72
2021/05/25 09:13:16;;;;;;;0.70;0.43;;;13.60;99.20;;;;;;5117964;28;20081;-72
2021/05/25 09:15:49;;;;;;;1.33;0.43;;;13.70;97.90;;;;;;5117981;28;20048;-72
2021/05/25 09:18:28;;;;;;;0.38;0.25;;;13.70;97.40;;;;;;5118656;28;20019;-72
2021/05/25 09:21:01;;;;;;;0.80;0.30;;;13.60;97.50;;;;;;5118805;28;20020;-73
2021/05/25 09:23:49;;;;;;;1.98;0.50;;;13.40;97.90;;;;;;5119376;28;20042;-73
2021/05/25 09:26:32;;;;;;;0.60;0.30;;;13.10;98.70;;;;;;5119216;28;20379;-73
2021/05/25 09:29:05;;;;;;;0.82;0.50;;;12.80;98.50;;;;;;5119534;28;20026;-72
2021/05/25 09:31:47;;;;;;;1.50;0.47;;;12.50;99.70;;;;;;5119657;28;20356;-72
2021/05/25 09:34:22;;;;;;;0.63;0.20;;;11.90;99.90;;;;;;5119111;28;20049;-72
2021/05/25 09:37:12;;;;;;;0.28;0.22;;;11.40;99.90;;;;;;5118037;28;20024;-72
2021/05/25 09:39:43;;;;;;;0.57;0.30;;;11.20;99.90;;;;;;5117815;28;20039;-72
2021/05/25 09:42:12;;;;;;;0.55;0.30;;;11.10;99.90;;;;;;5118075;28;20043;-80
2021/05/25 09:45:02;;;;;;;0.47;0.22;;;11.10;99.90;;;;;;5117755;28;20313;-73
2021/05/25 09:47:44;;;;;;;1.90;0.40;;;11.10;99.90;;;;;;5117526;28;20024;-72
2021/05/25 09:50:14;;;;;;;1.67;0.20;;;10.90;99.90;;;;;;5117310;28;20020;-73
2021/05/25 09:52:59;;;;;;;0.80;0.25;;;10.70;99.90;;;;;;5117351;28;20027;-73
2021/05/25 09:55:28;;;;;;;0.52;0.30;;;10.60;99.90;;;;;;5117105;28;20047;-71
2021/05/25 09:58:00;;;;;;;0.98;0.30;;;10.50;99.90;;;;;;5117707;28;20326;-73
2021/05/25 10:00:33;;;;;;;0.30;0.20;;;10.50;99.90;;;;;;5100712;28;20042;-73
2021/05/25 10:03:15;;;;;;;0.60;0.20;;;10.50;99.90;;;;;;5118464;28;20403;-74
2021/05/25 10:05:51;;;;;;;0.57;0.22;;;10.60;99.90;;;;;;5117997;28;20110;-74
2021/05/25 10:08:22;;;;;;;1.23;0.30;;;10.70;99.90;;;;;;5118083;28;20020;-74
2021/05/25 10:10:53;;;;;;;0.93;0.30;;;10.80;99.90;;;;;;5117763;28;20077;-73
2021/05/25 10:13:23;;;;;;;0.75;0.57;;;10.90;99.90;;;;;;5118288;28;20073;-73
2021/05/25 10:15:52;;;;;;;0.57;0.30;;;11.10;99.90;;;;;;5117853;28;20024;-74
2021/05/25 10:20:57;;;;;;;1.38;0.52;;;11.60;99.90;;;;;;5116798;28;20062;-73
2021/05/25 10:23:28;;;;;;;0.75;0.30;;;12.00;99.90;;;;;;5116904;28;20023;-73
2021/05/25 10:25:57;;;;;;;0.20;0.20;;;12.30;99.90;;;;;;5116717;28;20020;-73
2021/05/25 10:28:25;;;;;;;0.52;0.20;;;12.30;99.90;;;;;;5116833;28;20024;-74
2021/05/25 10:30:56;;;;;;;3.47;1.27;;;12.30;99.90;;;;;;5117243;28;20106;-73
2021/05/25 10:33:29;;;;;;;0.43;0.30;;;12.40;99.90;;;;;;5116570;28;20024;-73
2021/05/25 10:36:11;;;;;;;1.25;0.30;;;12.50;99.90;;;;;;5117111;28;20020;-75
2021/05/25 10:38:45;;;;;;;0.47;0.20;;;12.70;99.90;;;;;;5117096;28;20052;-73
2021/05/25 10:41:26;;;;;;;1.63;0.40;;;13.10;99.90;;;;;;5118101;28;20043;-72
2021/05/25 10:43:55;;;;;;;0.68;0.40;;;13.50;99.90;;;;;;5117552;28;20016;-72
2021/05/25 10:46:25;;;;;;;1.90;0.30;;;13.80;99.90;;;;;;5117483;28;20035;-74
2021/05/25 10:51:52;;;;;;;0.80;0.40;;;14.30;99.90;;;;;;5121586;28;20026;-73
2021/05/25 10:54:45;;;;;;;2.60;0.40;;;14.30;99.90;;;;;;5121868;28;20079;-73
2021/05/25 10:57:48;;;;;;;1.02;0.32;;;14.20;99.90;;;;;;5120751;28;20401;-73
2021/05/25 11:00:29;;;;;;;1.13;0.40;;;13.80;99.90;;;;;;5121516;28;20312;-73
2021/05/25 11:03:03;;;;;;;1.42;0.50;;;13.60;99.90;;;;;;5120592;28;20020;-73
2021/05/25 11:05:37;;;;;;;1.00;0.30;;;13.50;99.90;;;;;;5120305;28;20431;-73
2021/05/25 11:08:11;;;;;;;0.43;0.10;;;13.40;99.90;;;;;;5120865;28;20106;-73
2021/05/25 11:10:43;;;;;;;0.15;0.10;;;13.10;99.90;;;;;;5120534;28;20054;-74
2021/05/25 11:13:17;;;;;;;0.75;0.10;;;12.80;99.90;;;;;;5120890;28;20031;-74
2021/05/25 11:16:22;;;;;;;0.20;0.20;;;12.60;99.90;;;;;;5120757;28;20032;-74
2021/05/25 11:19:02;;;;;;;0.40;0.28;;;12.50;99.90;;;;;;5120933;28;20050;-74
2021/05/25 11:21:42;;;;;;;0.20;0.20;;;12.60;99.90;;;;;;5120810;28;20020;-74
2021/05/25 11:24:29;;;;;;;0.68;0.20;;;12.80;99.90;;;;;;5120866;28;20140;-74
2021/05/25 11:27:03;;;;;;;0.13;0.13;;;13.20;99.90;;;;;;5120645;28;20051;-74
2021/05/25 11:29:52;;;;;;;0.32;0.20;;;13.40;99.90;;;;;;5120878;28;20056;-64
2021/05/25 11:32:28;;;;;;;0.43;0.20;;;13.40;99.90;;;;;;5121194;28;20031;-64
2021/05/25 11:35:26;;;;;;;0.30;0.22;;;13.40;99.90;;;;;;5121075;28;20411;-64
2021/05/25 11:37:58;;;;;;;0.30;0.28;;;13.40;99.90;;;;;;5120679;28;20197;-65
2021/05/25 11:40:27;;;;;;;0.40;0.30;;;13.40;99.90;;;;;;5120653;28;20026;-63
2021/05/25 11:42:55;;;;;;;1.35;0.50;;;13.20;99.90;;;;;;5120780;28;20030;-64
2021/05/25 11:45:25;;;;;;;1.58;0.63;;;13.20;99.90;;;;;;5120580;28;20054;-64
2021/05/25 11:47:57;;;;;;;1.08;0.50;;;13.30;99.90;;;;;;5119634;28;20450;-64
2021/05/25 11:50:26;;;;;;;2.35;0.65;;;13.50;99.90;;;;;;5120401;28;20194;-65
2021/05/25 11:52:56;;;;;;;0.93;0.57;;;13.60;99.90;;;;;;5120577;28;20327;-64
2021/05/25 11:55:26;;;;;;;0.60;0.47;;;13.60;99.90;;;;;;5119918;28;20051;-64
2021/05/25 11:57:55;;;;;;;1.00;0.40;;;13.70;99.90;;;;;;5119913;28;20055;-64
2021/05/25 12:00:27;;;;;;;1.35;0.40;;;13.90;99.90;;;;;;5118979;28;20390;-65
2021/05/25 12:03:00;;;;;;;0.55;0.32;;;14.10;98.30;;;;;;5120005;28;20055;-64
2021/05/25 12:05:50;;;;;;;0.50;0.30;;;14.10;96.90;;;;;;5119910;28;20050;-65
2021/05/25 12:08:18;;;;;;;0.38;0.20;;;14.10;98.00;;;;;;5119996;28;20031;-65
2021/05/25 12:10:46;;;;;;;0.50;0.30;;;14.10;99.10;;;;;;5119984;28;20028;-64
2021/05/25 12:13:18;;;;;;;0.40;0.30;;;14.20;96.60;;;;;;5101957;28;20419;-64
2021/05/25 12:15:49;;;;;;;0.35;0.25;;;14.10;96.50;;;;;;5119924;28;20038;-64
2021/05/25 12:18:22;;;;;;;1.58;0.50;;;14.00;96.20;;;;;;5119826;28;20035;-64
2021/05/25 12:20:57;;;;;;;1.60;0.50;;;13.90;95.40;;;;;;5101649;28;20468;-64
2021/05/25 12:23:27;;;;;;;2.03;0.80;;;13.90;95.50;;;;;;5119854;28;20023;-64
2021/05/25 12:25:57;;;;;;;2.65;1.13;;;14.00;96.60;;;;;;5119467;28;20482;-64
2021/05/25 12:28:33;;;;;;;3.00;0.80;;;14.10;95.20;;;;;;5119254;28;20096;-64
2021/05/25 12:31:07;;;;;;;1.55;1.05;;;14.30;95.50;;;;;;5119829;28;20019;-64
2021/05/25 12:33:37;;;;;;;2.50;1.00;;;14.70;96.50;;;;;;5119403;28;20049;-64
2021/05/25 12:36:23;;;;;;;1.20;0.73;;;15.30;96.10;;;;;;5119461;28;20032;-66
2021/05/25 12:38:57;;;;;;;;;;;16.10;94.50;;;;;;5119955;28;20068;-64
2021/05/25 12:41:26;;;;;;;1.75;0.93;;;16.80;92.40;;;;;;5119836;28;19994;-64
2021/05/25 12:44:16;;;;;;;1.90;1.35;;;17.30;90.60;;;;;;5119439;28;20467;-65
2021/05/25 12:47:00;;;;;;;1.35;1.02;;;17.40;90.40;;;;;;5119433;28;20016;-64
2021/05/25 12:49:46;;;;;;;6.10;1.02;;;17.30;90.40;;;;;;5119471;28;20030;-65
2021/05/25 12:52:34;;;;;;;2.53;1.10;;;17.30;87.80;;;;;;5119029;28;20020;-65
2021/05/25 12:55:11;;;;;;;2.53;1.10;;;17.40;88.80;;;;;;5119167;28;20051;-65
2021/05/25 12:57:52;;;;;;;3.53;1.40;;;17.60;86.80;;;;;;5119275;28;20034;-64
2021/05/25 13:00:39;;;;;;;2.55;1.48;;;17.90;82.50;;;;;;5119157;28;20094;-64
2021/05/25 13:03:26;;;;;;;4.30;1.05;;;18.00;81.30;;;;;;5119097;28;20102;-65
2021/05/25 13:06:15;;;;;;;;;;;17.90;84.20;;;;;;5119345;28;20023;-64
2021/05/25 13:08:47;;;;;;;2.53;1.70;;;17.80;82.30;;;;;;5118044;28;19947;-65
2021/05/25 13:11:16;;;;;;;4.85;1.10;;;17.30;81.70;;;;;;5118464;28;20107;-65
2021/05/25 13:13:45;;;;;;;2.70;1.40;;;16.90;84.00;;;;;;5100648;28;20114;-65
2021/05/25 13:16:29;;;;;;;8.02;1.50;;;16.60;85.60;;;;;;5118959;28;20034;-64
2021/05/25 13:18:58;;;;;;;5.43;1.52;;;16.30;85.20;;;;;;5118735;28;20156;-65
2021/05/25 13:21:27;;;;;;;3.85;1.55;;;16.20;88.80;;;;;;5118846;28;20019;-65
2021/05/25 13:24:03;;;;;;;2.75;1.30;;;16.30;85.80;;;;;;5118683;28;20323;-64